createdAt,value
2023-11-30T00:01:12.187Z,1.15
2023-11-30T00:03:46.924Z,1.30
2023-11-30T00:06:21.600Z,1.40
2023-11-30T00:08:57.562Z,1.48
2023-11-30T00:11:30.072Z,2.50
2023-11-30T00:14:03.088Z,1.55
2023-11-30T00:16:39.089Z,1.45
2023-11-30T00:19:11.931Z,1.67
2023-11-30T00:21:47.634Z,0.90
2023-11-30T00:24:25.817Z,0.90
2023-11-30T00:27:02.793Z,1.88
2023-11-30T00:29:35.581Z,0.90
2023-11-30T00:32:10.917Z,1.63
2023-11-30T00:34:44.758Z,1.65
2023-11-30T00:37:23.592Z,2.10
2023-11-30T00:39:57.713Z,1.00
2023-11-30T00:42:32.698Z,1.88
2023-11-30T00:45:09.290Z,1.52
2023-11-30T00:47:42.049Z,2.17
2023-11-30T00:50:15.814Z,1.80
2023-11-30T00:52:51.882Z,2.00
2023-11-30T00:55:26.345Z,2.50
2023-11-30T00:57:59.293Z,1.58
2023-11-30T01:00:33.590Z,3.38
2023-11-30T01:03:05.186Z,1.80
2023-11-30T01:05:38.001Z,1.00
2023-11-30T01:08:12.250Z,2.30
2023-11-30T01:10:45.903Z,1.38
2023-11-30T01:13:18.719Z,1.02
2023-11-30T01:15:52.294Z,1.85
2023-11-30T01:18:24.090Z,1.25
2023-11-30T01:20:56.750Z,1.55
2023-11-30T01:23:32.107Z,1.70
2023-11-30T01:26:04.525Z,1.55
2023-11-30T01:28:38.342Z,1.65
2023-11-30T01:31:11.513Z,1.95
2023-11-30T01:33:45.707Z,1.50
2023-11-30T01:36:18.857Z,2.30
2023-11-30T01:38:54.118Z,1.65
2023-11-30T01:41:30.994Z,1.83
2023-11-30T01:44:03.045Z,1.65
2023-11-30T01:46:36.571Z,1.00
2023-11-30T01:49:13.230Z,2.22
2023-11-30T01:51:46.807Z,3.10
2023-11-30T01:54:22.339Z,3.28
2023-11-30T01:56:56.307Z,1.90
2023-11-30T01:59:31.206Z,1.92
2023-11-30T02:02:06.804Z,2.50
2023-11-30T02:04:39.829Z,1.55
2023-11-30T02:07:12.227Z,2.35
2023-11-30T02:09:49.692Z,2.67
2023-11-30T02:12:22.684Z,2.15
2023-11-30T02:14:55.621Z,1.73
2023-11-30T02:17:28.299Z,2.15
2023-11-30T02:20:01.483Z,1.80
2023-11-30T02:22:36.394Z,2.38
2023-11-30T02:25:11.381Z,2.67
2023-11-30T02:27:43.607Z,1.77
2023-11-30T02:30:19.673Z,2.22
2023-11-30T02:32:54.075Z,2.10
2023-11-30T02:35:30.175Z,2.67
2023-11-30T02:38:07.419Z,2.55
2023-11-30T02:40:40.540Z,1.98
2023-11-30T02:43:13.929Z,2.17
2023-11-30T02:45:46.008Z,1.75
2023-11-30T02:48:20.252Z,1.48
2023-11-30T02:50:53.496Z,1.05
2023-11-30T02:53:27.834Z,1.85
2023-11-30T02:56:01.733Z,1.45
2023-11-30T02:58:37.884Z,1.20
2023-11-30T03:01:12.468Z,1.60
2023-11-30T03:03:48.051Z,1.80
2023-11-30T03:06:23.279Z,1.40
2023-11-30T03:08:58.802Z,1.52
2023-11-30T03:11:33.568Z,2.17
2023-11-30T03:14:10.853Z,3.08
2023-11-30T03:16:44.044Z,1.20
2023-11-30T03:19:18.697Z,2.03
2023-11-30T03:21:54.308Z,2.00
2023-11-30T03:24:32.304Z,2.55
2023-11-30T03:27:03.985Z,1.80
2023-11-30T03:29:37.096Z,2.03
2023-11-30T03:32:09.759Z,2.20
2023-11-30T03:34:43.454Z,3.33
2023-11-30T03:37:16.530Z,2.30
2023-11-30T03:39:52.139Z,1.83
2023-11-30T03:42:26.040Z,1.10
2023-11-30T03:44:58.219Z,2.30
2023-11-30T03:47:31.999Z,1.27
2023-11-30T03:50:03.929Z,2.38
2023-11-30T03:52:37.729Z,1.70
2023-11-30T03:55:13.972Z,1.23
2023-11-30T03:57:44.794Z,2.78
2023-11-30T04:00:19.402Z,2.10
2023-11-30T04:02:57.587Z,1.77
2023-11-30T04:05:30.193Z,1.60
2023-11-30T04:08:04.531Z,1.70
2023-11-30T04:10:38.419Z,2.15
2023-11-30T04:13:10.699Z,1.20
2023-11-30T04:15:43.901Z,1.48
2023-11-30T04:18:16.729Z,3.08
2023-11-30T04:20:50.397Z,2.30
2023-11-30T04:23:21.193Z,2.40
2023-11-30T04:25:54.184Z,1.35
2023-11-30T04:28:27.969Z,1.05
2023-11-30T04:31:04.727Z,1.10
2023-11-30T04:33:37.062Z,1.00
2023-11-30T04:36:10.095Z,2.30
2023-11-30T04:38:44.329Z,1.25
2023-11-30T04:41:18.111Z,1.60
2023-11-30T04:43:55.136Z,2.25
2023-11-30T04:46:31.698Z,1.50
2023-11-30T04:49:06.138Z,2.58
2023-11-30T04:51:40.120Z,1.48
2023-11-30T04:54:11.704Z,2.10
2023-11-30T04:56:45.865Z,2.80
2023-11-30T04:59:19.494Z,1.60
2023-11-30T05:01:52.919Z,1.25
2023-11-30T05:04:26.665Z,3.20
2023-11-30T05:06:59.676Z,2.17
2023-11-30T05:09:33.520Z,2.25
2023-11-30T05:12:09.832Z,2.25
2023-11-30T05:14:42.425Z,2.88
2023-11-30T05:17:15.718Z,1.52
2023-11-30T05:19:49.813Z,2.30
2023-11-30T05:22:23.571Z,4.70
2023-11-30T05:24:57.162Z,2.17
2023-11-30T05:27:36.135Z,2.33
2023-11-30T05:30:10.980Z,2.63
2023-11-30T05:32:43.293Z,1.65
2023-11-30T05:35:15.581Z,1.85
2023-11-30T05:37:48.829Z,1.42
2023-11-30T05:40:20.838Z,1.88
2023-11-30T05:42:55.865Z,3.90
2023-11-30T05:45:31.535Z,2.10
2023-11-30T05:48:04.033Z,2.20
2023-11-30T05:50:38.103Z,2.15
2023-11-30T05:53:10.830Z,2.30
2023-11-30T05:55:43.154Z,1.95
2023-11-30T05:58:21.124Z,2.45
2023-11-30T06:00:53.777Z,2.83
2023-11-30T06:03:31.183Z,2.53
2023-11-30T06:06:03.656Z,1.77
2023-11-30T06:08:37.465Z,3.65
2023-11-30T06:11:11.663Z,3.38
2023-11-30T06:13:45.646Z,1.90
2023-11-30T06:16:19.873Z,2.55
2023-11-30T06:18:52.438Z,1.42
2023-11-30T06:21:24.962Z,3.20
2023-11-30T06:23:58.333Z,2.33
2023-11-30T06:26:32.024Z,2.70
2023-11-30T06:29:06.368Z,2.08
2023-11-30T06:31:42.423Z,3.45
2023-11-30T06:34:17.253Z,2.70
2023-11-30T06:36:54.806Z,2.92
2023-11-30T06:39:31.349Z,5.10
2023-11-30T06:42:05.320Z,2.38
2023-11-30T06:44:42.264Z,1.40
2023-11-30T06:47:14.952Z,3.05
2023-11-30T06:49:50.176Z,1.83
2023-11-30T06:52:24.409Z,3.75
2023-11-30T06:55:00.500Z,2.60
2023-11-30T06:57:35.923Z,3.00
2023-11-30T07:00:14.236Z,4.43
2023-11-30T07:02:46.127Z,1.25
2023-11-30T07:05:19.260Z,2.78
2023-11-30T07:07:54.124Z,3.53
2023-11-30T07:10:28.786Z,2.28
2023-11-30T07:13:01.154Z,2.63
2023-11-30T07:15:46.079Z,1.80
2023-11-30T07:18:20.162Z,3.72
2023-11-30T07:20:53.991Z,1.73
2023-11-30T07:23:31.481Z,3.83
2023-11-30T07:26:05.964Z,3.45
2023-11-30T07:28:39.287Z,3.40
2023-11-30T07:31:25.148Z,5.68
2023-11-30T07:34:01.356Z,3.47
2023-11-30T07:36:34.464Z,2.85
2023-11-30T07:39:10.413Z,2.35
2023-11-30T07:41:43.434Z,3.72
2023-11-30T07:44:19.773Z,4.32
2023-11-30T07:46:54.991Z,2.78
2023-11-30T07:49:30.586Z,3.70
2023-11-30T07:52:06.021Z,2.95
2023-11-30T07:54:41.752Z,3.85
2023-11-30T07:57:14.845Z,3.88
2023-11-30T07:59:54.055Z,5.28
2023-11-30T08:02:33.281Z,2.72
2023-11-30T08:05:07.382Z,1.92
2023-11-30T08:07:41.026Z,1.83
2023-11-30T08:10:13.838Z,1.85
2023-11-30T08:12:49.380Z,3.55
2023-11-30T08:15:27.611Z,2.47
2023-11-30T08:18:03.518Z,3.00
2023-11-30T08:20:35.526Z,2.22
2023-11-30T08:23:08.306Z,3.80
2023-11-30T08:25:39.643Z,2.22
2023-11-30T08:28:12.433Z,3.15
2023-11-30T08:30:52.789Z,3.15
2023-11-30T08:33:29.425Z,2.25
2023-11-30T08:36:02.971Z,3.08
2023-11-30T08:38:35.256Z,3.45
2023-11-30T08:41:09.165Z,3.10
2023-11-30T08:43:46.643Z,2.75
2023-11-30T08:46:22.641Z,2.30
2023-11-30T08:48:55.990Z,3.60
2023-11-30T08:51:31.029Z,2.40
2023-11-30T08:54:03.173Z,2.03
2023-11-30T08:56:41.295Z,2.78
2023-11-30T08:59:20.416Z,3.22
2023-11-30T09:02:00.735Z,3.10
2023-11-30T09:04:46.990Z,2.80
2023-11-30T09:07:37.053Z,3.20
2023-11-30T09:10:22.425Z,3.58
2023-11-30T09:13:01.856Z,2.92
2023-11-30T09:15:38.517Z,4.55
2023-11-30T09:18:30.927Z,2.80
2023-11-30T09:21:12.533Z,4.25
2023-11-30T09:23:54.778Z,2.88
2023-11-30T09:26:38.415Z,3.28
2023-11-30T09:29:14.369Z,3.65
2023-11-30T09:31:50.479Z,2.15
2023-11-30T09:34:39.869Z,2.30
2023-11-30T09:37:19.412Z,2.30
2023-11-30T09:40:04.539Z,1.58
2023-11-30T09:42:42.470Z,2.25
2023-11-30T09:45:26.953Z,6.18
2023-11-30T09:48:03.275Z,4.53
2023-11-30T09:50:44.748Z,2.88
2023-11-30T09:53:28.483Z,3.30
2023-11-30T09:56:08.767Z,3.67
2023-11-30T09:58:49.448Z,2.55
2023-11-30T10:01:28.414Z,3.42
2023-11-30T10:04:04.182Z,3.70
2023-11-30T10:09:54.377Z,3.15
2023-11-30T10:12:40.689Z,3.85
2023-11-30T10:15:20.116Z,3.45
2023-11-30T10:18:01.624Z,4.22
2023-11-30T10:20:55.389Z,5.13
2023-11-30T10:23:34.727Z,4.18
2023-11-30T10:26:16.835Z,3.67
2023-11-30T10:28:58.142Z,2.55
2023-11-30T10:31:47.986Z,7.22
2023-11-30T10:34:50.396Z,2.80
2023-11-30T10:37:34.320Z,3.28
2023-11-30T10:40:14.589Z,5.35
2023-11-30T10:42:55.532Z,3.47
2023-11-30T10:45:32.870Z,4.90
2023-11-30T10:48:17.125Z,2.58
2023-11-30T10:50:55.352Z,2.13
2023-11-30T10:53:44.303Z,2.90
2023-11-30T10:56:25.627Z,3.40
2023-11-30T10:59:06.148Z,3.28
2023-11-30T11:01:40.445Z,4.05
2023-11-30T11:04:16.807Z,3.15
2023-11-30T11:06:51.685Z,3.88
2023-11-30T11:09:23.235Z,7.60
2023-11-30T11:11:56.846Z,5.43
2023-11-30T11:14:37.461Z,3.78
2023-11-30T11:17:10.765Z,3.40
2023-11-30T11:19:44.282Z,3.70
2023-11-30T11:22:20.866Z,2.85
2023-11-30T11:24:59.383Z,3.95
2023-11-30T11:27:32.930Z,2.63
2023-11-30T11:30:12.390Z,1.90
2023-11-30T11:32:46.138Z,3.85
2023-11-30T11:35:19.076Z,2.42
2023-11-30T11:37:51.147Z,2.10
2023-11-30T11:40:24.220Z,2.75
2023-11-30T11:42:56.389Z,1.38
2023-11-30T11:45:29.639Z,2.15
2023-11-30T11:48:01.184Z,3.90
2023-11-30T11:50:32.637Z,3.72
2023-11-30T11:53:05.584Z,3.58
2023-11-30T11:55:37.086Z,2.10
2023-11-30T11:58:08.706Z,2.45
2023-11-30T12:00:41.557Z,3.05
2023-11-30T12:03:12.569Z,3.65
2023-11-30T12:05:51.940Z,3.35
2023-11-30T12:08:32.513Z,2.78
2023-11-30T12:11:07.880Z,1.98
2023-11-30T12:13:43.871Z,2.00
2023-11-30T12:16:17.676Z,2.35
2023-11-30T12:18:49.074Z,2.50
2023-11-30T12:21:23.863Z,2.53
2023-11-30T12:23:55.728Z,2.35
2023-11-30T12:26:28.248Z,5.43
2023-11-30T12:28:59.957Z,4.53
2023-11-30T12:31:34.710Z,3.03
2023-11-30T12:34:07.762Z,3.33
2023-11-30T12:36:38.995Z,2.67
2023-11-30T12:39:13.646Z,4.28
2023-11-30T12:41:46.294Z,3.28
2023-11-30T12:44:20.146Z,4.20
2023-11-30T12:46:53.280Z,3.78
2023-11-30T12:49:26.901Z,3.92
2023-11-30T12:51:59.617Z,4.38
2023-11-30T12:54:32.340Z,4.78
2023-11-30T12:57:08.119Z,3.63
2023-11-30T12:59:40.421Z,4.97
2023-11-30T13:02:16.897Z,3.75
2023-11-30T13:04:48.688Z,2.53
2023-11-30T13:07:20.803Z,3.05
2023-11-30T13:09:53.408Z,2.95
2023-11-30T13:12:24.504Z,3.50
2023-11-30T13:14:59.132Z,4.97
2023-11-30T13:17:36.044Z,4.88
2023-11-30T13:20:09.664Z,4.68
2023-11-30T13:22:40.193Z,5.32
2023-11-30T13:25:15.312Z,3.42
2023-11-30T13:27:48.664Z,3.42
2023-11-30T13:30:20.706Z,3.47
2023-11-30T13:32:59.905Z,2.88
2023-11-30T13:35:31.509Z,5.03
2023-11-30T13:38:05.106Z,3.40
2023-11-30T13:40:37.232Z,6.05
2023-11-30T13:43:10.519Z,3.63
2023-11-30T13:45:42.242Z,3.03
2023-11-30T13:48:22.438Z,4.28
2023-11-30T13:50:59.485Z,3.28
2023-11-30T13:53:32.943Z,2.38
2023-11-30T13:56:05.249Z,5.55
2023-11-30T13:58:38.500Z,6.93
2023-11-30T14:01:12.860Z,4.45
2023-11-30T14:03:46.735Z,5.07
2023-11-30T14:06:20.019Z,4.95
2023-11-30T14:08:52.675Z,7.85
2023-11-30T14:11:26.625Z,4.28
2023-11-30T14:14:00.605Z,7.45
2023-11-30T14:16:41.786Z,5.07
2023-11-30T14:19:17.474Z,5.43
2023-11-30T14:21:49.964Z,4.72
2023-11-30T14:24:23.770Z,4.55
2023-11-30T14:26:57.277Z,4.80
2023-11-30T14:29:30.152Z,3.65
2023-11-30T14:32:02.902Z,4.82
2023-11-30T14:34:36.314Z,4.78
2023-11-30T14:37:07.819Z,5.10
2023-11-30T14:39:39.900Z,4.00
2023-11-30T14:42:14.023Z,3.08
2023-11-30T14:44:45.655Z,4.93
2023-11-30T14:47:15.642Z,5.38
2023-11-30T14:49:52.004Z,3.63
2023-11-30T14:52:25.151Z,6.00
2023-11-30T14:54:58.059Z,5.15
2023-11-30T14:57:29.586Z,4.07
2023-11-30T15:00:02.875Z,4.07
2023-11-30T15:02:34.992Z,3.08
2023-11-30T15:05:10.944Z,5.00
2023-11-30T15:07:46.775Z,3.70
2023-11-30T15:10:22.737Z,2.70
2023-11-30T15:12:54.527Z,4.55
2023-11-30T15:15:25.849Z,4.38
2023-11-30T15:17:58.641Z,5.18
2023-11-30T15:20:32.663Z,5.65
2023-11-30T15:23:07.403Z,2.55
2023-11-30T15:25:43.110Z,2.72
2023-11-30T15:28:15.476Z,4.70
2023-11-30T15:30:49.720Z,5.88
2023-11-30T15:33:26.085Z,3.47
2023-11-30T15:36:00.906Z,8.75
2023-11-30T15:38:34.765Z,6.00
2023-11-30T15:41:08.642Z,3.63
2023-11-30T15:43:41.549Z,5.95
2023-11-30T15:46:14.131Z,6.57
2023-11-30T15:48:46.010Z,2.95
2023-11-30T15:51:22.435Z,5.93
2023-11-30T15:53:54.856Z,6.13
2023-11-30T15:56:29.659Z,3.10
2023-11-30T15:59:02.547Z,4.78
2023-11-30T16:01:39.531Z,4.25
2023-11-30T16:04:13.573Z,4.95
2023-11-30T16:06:51.050Z,5.45
2023-11-30T16:09:22.692Z,4.55
2023-11-30T16:11:55.996Z,3.95
2023-11-30T16:14:28.269Z,5.50
2023-11-30T16:17:00.417Z,2.83
2023-11-30T16:19:32.360Z,5.43
2023-11-30T16:22:05.614Z,6.60
2023-11-30T16:24:38.725Z,2.80
2023-11-30T16:27:11.789Z,4.78
2023-11-30T16:29:46.042Z,3.85
2023-11-30T16:32:18.355Z,4.05
2023-11-30T16:34:50.596Z,3.38
2023-11-30T16:37:27.974Z,3.60
2023-11-30T16:40:00.858Z,3.15
2023-11-30T16:42:33.572Z,4.20
2023-11-30T16:45:06.398Z,2.40
2023-11-30T16:48:06.791Z,5.32
2023-11-30T16:50:39.898Z,5.85
2023-11-30T16:53:14.403Z,3.92
2023-11-30T16:55:47.356Z,4.03
2023-11-30T16:58:19.377Z,3.65
2023-11-30T17:00:54.448Z,4.65
2023-11-30T17:03:28.704Z,5.55
2023-11-30T17:06:00.405Z,4.47
2023-11-30T17:08:35.534Z,5.40
2023-11-30T17:11:10.656Z,3.20
2023-11-30T17:13:43.745Z,4.32
2023-11-30T17:16:16.039Z,2.25
2023-11-30T17:18:48.704Z,3.55
2023-11-30T17:21:22.946Z,4.88
2023-11-30T17:24:01.230Z,3.58
2023-11-30T17:26:34.405Z,4.13
2023-11-30T17:29:07.130Z,4.70
2023-11-30T17:31:39.056Z,3.35
2023-11-30T17:34:10.974Z,3.38
2023-11-30T17:36:44.742Z,4.43
2023-11-30T17:39:18.773Z,3.92
2023-11-30T17:41:55.515Z,3.78
2023-11-30T17:44:28.594Z,4.60
2023-11-30T17:47:00.531Z,3.05
2023-11-30T17:49:32.836Z,4.97
2023-11-30T17:52:05.486Z,3.00
2023-11-30T17:54:40.007Z,5.68
2023-11-30T17:57:11.309Z,4.20
2023-11-30T17:59:43.334Z,4.45
2023-11-30T18:02:16.324Z,5.55
2023-11-30T18:04:47.856Z,4.80
2023-11-30T18:07:20.151Z,4.75
2023-11-30T18:09:54.678Z,3.17
2023-11-30T18:12:31.969Z,3.03
2023-11-30T18:15:06.311Z,4.85
2023-11-30T18:17:41.914Z,5.40
2023-11-30T18:20:14.702Z,5.57
2023-11-30T18:22:48.169Z,8.55
2023-11-30T18:25:22.816Z,6.35
2023-11-30T18:27:53.760Z,3.58
2023-11-30T18:30:27.471Z,6.32
2023-11-30T18:33:01.708Z,4.50
2023-11-30T18:35:34.718Z,6.32
2023-11-30T18:38:10.033Z,4.78
2023-11-30T18:40:46.285Z,6.18
2023-11-30T18:43:20.554Z,5.45
2023-11-30T18:45:52.366Z,6.43
2023-11-30T18:48:25.893Z,3.47
2023-11-30T18:51:01.416Z,3.13
2023-11-30T18:53:34.504Z,5.30
2023-11-30T18:56:08.914Z,4.03
2023-11-30T18:58:46.749Z,2.97
2023-11-30T19:01:24.690Z,4.55
2023-11-30T19:03:57.467Z,4.75
2023-11-30T19:06:30.479Z,5.32
2023-11-30T19:09:03.417Z,5.03
2023-11-30T19:11:37.816Z,5.10
2023-11-30T19:14:12.626Z,4.40
2023-11-30T19:16:46.526Z,3.53
2023-11-30T19:19:20.500Z,6.05
2023-11-30T19:21:52.764Z,5.18
2023-11-30T19:24:27.379Z,4.47
2023-11-30T19:27:01.551Z,7.07
2023-11-30T19:29:36.406Z,6.90
2023-11-30T19:32:08.909Z,2.67
2023-11-30T19:34:41.441Z,3.42
2023-11-30T19:37:14.247Z,3.15
2023-11-30T19:39:47.960Z,7.20
2023-11-30T19:42:25.967Z,4.70
2023-11-30T19:44:58.783Z,4.43
2023-11-30T19:47:29.965Z,4.53
2023-11-30T19:50:04.834Z,6.43
2023-11-30T19:52:39.676Z,2.28
2023-11-30T19:55:12.691Z,5.15
2023-11-30T19:57:47.815Z,5.35
2023-11-30T20:00:21.274Z,4.88
2023-11-30T20:02:54.539Z,3.67
2023-11-30T20:05:28.240Z,4.57
2023-11-30T20:08:01.897Z,4.38
2023-11-30T20:10:37.868Z,4.95
2023-11-30T20:13:15.516Z,6.53
2023-11-30T20:15:48.794Z,6.32
2023-11-30T20:18:23.882Z,6.53
2023-11-30T20:20:57.915Z,4.38
2023-11-30T20:23:32.829Z,6.32
2023-11-30T20:26:07.955Z,6.47
2023-11-30T20:28:49.689Z,5.40
2023-11-30T20:31:22.824Z,4.13
2023-11-30T20:33:59.894Z,7.43
2023-11-30T20:36:36.274Z,7.47
2023-11-30T20:39:10.169Z,7.15
2023-11-30T20:41:43.593Z,5.35
2023-11-30T20:44:17.641Z,4.40
2023-11-30T20:46:51.634Z,8.23
2023-11-30T20:49:24.788Z,6.85
2023-11-30T20:51:57.864Z,4.60
2023-11-30T20:54:33.379Z,9.90
2023-11-30T20:57:10.651Z,3.75
2023-11-30T20:59:44.750Z,5.63
2023-11-30T21:02:17.631Z,5.97
2023-11-30T21:04:53.809Z,6.57
2023-11-30T21:07:28.109Z,4.30
2023-11-30T21:10:00.755Z,7.10
2023-11-30T21:12:35.181Z,9.70
2023-11-30T21:15:13.711Z,3.13
2023-11-30T21:17:51.642Z,4.25
2023-11-30T21:20:23.741Z,6.18
2023-11-30T21:23:00.051Z,6.40
2023-11-30T21:25:34.518Z,6.32
2023-11-30T21:28:10.117Z,5.95
2023-11-30T21:30:46.029Z,7.55
2023-11-30T21:33:20.041Z,7.45
2023-11-30T21:35:56.497Z,3.88
2023-11-30T21:38:31.901Z,6.32
2023-11-30T21:41:06.928Z,2.80
2023-11-30T21:43:39.008Z,8.15
2023-11-30T21:46:16.363Z,6.93
2023-11-30T21:48:49.962Z,3.92
2023-11-30T21:51:23.594Z,2.88
2023-11-30T21:53:59.508Z,4.07
2023-11-30T21:56:35.439Z,5.53
2023-11-30T21:59:10.624Z,6.03
2023-11-30T22:01:46.925Z,4.32
2023-11-30T22:04:21.800Z,6.20
2023-11-30T22:06:55.567Z,4.00
2023-11-30T22:09:31.794Z,7.22
2023-11-30T22:12:07.997Z,5.10
2023-11-30T22:14:40.546Z,6.35
2023-11-30T22:17:17.805Z,6.88
2023-11-30T22:19:51.664Z,8.52
2023-11-30T22:22:28.564Z,10.05
2023-11-30T22:25:04.408Z,8.43
2023-11-30T22:27:44.600Z,9.45
2023-11-30T22:30:24.551Z,4.35
2023-11-30T22:33:05.527Z,8.73
2023-11-30T22:35:38.588Z,5.47
2023-11-30T22:38:10.920Z,9.27
2023-11-30T22:40:49.647Z,6.68
2023-11-30T22:43:22.209Z,8.43
2023-11-30T22:45:56.088Z,7.90
2023-11-30T22:48:32.005Z,5.93
2023-11-30T22:51:11.825Z,3.50
2023-11-30T22:53:48.506Z,3.38
2023-11-30T22:56:22.260Z,4.35
2023-11-30T22:58:57.197Z,6.00
2023-11-30T23:01:32.982Z,5.22
2023-11-30T23:04:14.240Z,6.00
2023-11-30T23:06:47.849Z,3.80
2023-11-30T23:09:23.063Z,7.53
2023-11-30T23:11:58.212Z,5.32
2023-11-30T23:14:33.894Z,3.35
2023-11-30T23:17:08.805Z,3.97
2023-11-30T23:19:45.561Z,3.22
2023-11-30T23:22:20.208Z,5.35
2023-11-30T23:24:52.319Z,1.90
2023-11-30T23:30:14.613Z,6.10
2023-11-30T23:32:50.015Z,1.98
2023-11-30T23:35:26.384Z,3.30
2023-11-30T23:37:58.050Z,3.72
2023-11-30T23:40:32.299Z,2.90
2023-11-30T23:43:04.241Z,5.15
2023-11-30T23:45:38.367Z,1.30
2023-11-30T23:48:12.222Z,2.35
2023-11-30T23:50:50.074Z,5.03
2023-11-30T23:53:26.782Z,6.63
2023-11-30T23:56:01.533Z,3.08
2023-11-30T23:58:34.517Z,3.13
